Time;durP1;ratioP1;P1;durP2;ratioP2;P2;SDS_P1;SDS_P2;PMS_P1;PMS_P2;Temp;Humidity;BMP_temperature;BMP_pressure;BME280_temperature;BME280_humidity;BME280_pressure;Samples;Min_cycle;Max_cycle;Signal;HPM_P1;HPM_P2
2024/01/03 00:00:05;;;;;;;69.18;37.97;;;;;;;-142.57;100.00;56246.59;5030451;28;21454;-78
2024/01/03 00:02:31;;;;;;;72.72;37.50;;;;;;;-142.57;100.00;56289.03;4996975;28;20041;-81
2024/01/03 00:04:57;;;;;;;70.75;37.88;;;;;;;-142.57;100.00;56303.19;5041127;28;20040;-78
2024/01/03 00:07:22;;;;;;;72.82;36.63;;;;;;;-142.57;100.00;56291.06;5041653;28;20025;-77
2024/01/03 00:09:53;;;;;;;70.78;36.22;;;;;;;-142.57;100.00;56317.34;5043808;28;20116;-81
2024/01/03 00:12:24;;;;;;;68.90;37.53;;;;;;;-142.57;100.00;56317.34;5050522;28;20032;-79
2024/01/03 00:14:50;;;;;;;69.72;37.47;;;;;;;-142.57;100.00;56222.34;5032884;28;22209;-79
2024/01/03 00:17:16;;;;;;;67.25;36.75;;;;;;;-142.57;100.00;56274.91;5019624;28;20017;-78
2024/01/03 00:19:42;;;;;;;76.03;38.00;;;;;;;-142.57;100.00;56230.44;5049722;28;20059;-78
2024/01/03 00:22:15;;;;;;;69.65;37.92;;;;;;;-142.57;100.00;56262.78;5054454;28;20064;-78
2024/01/03 00:24:44;;;;;;;;;;;;;;;-142.57;100.00;56252.66;5053612;28;20075;-78
2024/01/03 00:27:10;;;;;;;69.63;36.28;;;;;;;-142.57;100.00;56246.59;5051548;28;19992;-78
2024/01/03 00:29:53;;;;;;;64.25;35.38;;;;;;;-142.57;100.00;56218.31;5003618;28;20063;-78
2024/01/03 00:32:23;;;;;;;69.82;36.38;;;;;;;-142.57;100.00;56242.56;5045683;28;20116;-79
2024/01/03 00:34:48;;;;;;;66.57;34.35;;;;;;;-142.57;100.00;56214.28;5032971;28;20056;-78
2024/01/03 00:37:29;;;;;;;66.63;35.42;;;;;;;-142.57;100.00;56210.22;5023000;28;20490;-80
2024/01/03 00:39:56;;;;;;;67.72;35.22;;;;;;;-142.57;100.00;56204.16;5042600;28;20033;-79
2024/01/03 00:42:23;;;;;;;66.38;34.20;;;;;;;-142.57;100.00;56266.81;5041443;28;20082;-80
2024/01/03 00:44:48;;;;;;;67.68;35.25;;;;;;;-142.57;100.00;56198.09;5051501;28;20390;-78
2024/01/03 00:47:15;;;;;;;62.47;34.90;;;;;;;-142.57;100.00;56190.03;5043844;28;20032;-79
2024/01/03 00:49:41;;;;;;;62.63;33.00;;;;;;;-142.57;100.00;56222.34;5010994;28;20063;-80
2024/01/03 00:52:07;;;;;;;62.38;34.53;;;;;;;-142.57;100.00;56200.13;5047536;28;20045;-81
2024/01/03 00:54:34;;;;;;;58.42;32.45;;;;;;;-142.57;100.00;56202.16;5047467;28;20037;-77
2024/01/03 00:57:01;;;;;;;61.22;33.30;;;;;;;-142.57;100.00;56190.03;5049098;28;20099;-79
2024/01/03 00:59:28;;;;;;;61.75;33.10;;;;;;;-142.57;100.00;56226.41;5024137;28;20458;-80
2024/01/03 01:01:54;;;;;;;61.17;31.35;;;;;;;-142.57;100.00;56206.19;5046415;28;20036;-78
2024/01/03 01:04:20;;;;;;;64.68;31.70;;;;;;;-142.57;100.00;56248.63;5045314;28;20065;-80
2024/01/03 01:06:46;;;;;;;57.58;32.90;;;;;;;-142.57;100.00;56177.91;5059720;28;20064;-78
2024/01/03 01:09:12;;;;;;;59.67;33.50;;;;;;;-142.57;100.00;56228.41;5040963;28;20029;-80
2024/01/03 01:11:37;;;;;;;59.05;32.97;;;;;;;-142.57;100.00;56198.09;5051652;28;20098;-79
2024/01/03 01:14:03;;;;;;;58.20;31.35;;;;;;;-142.57;100.00;56234.47;5044018;28;20064;-78
2024/01/03 01:16:29;;;;;;;60.75;32.58;;;;;;;-142.57;100.00;56194.06;5031586;28;20473;-78
2024/01/03 01:18:54;;;;;;;58.05;30.95;;;;;;;-142.57;100.00;56181.94;5051469;28;20036;-79
2024/01/03 01:21:20;;;;;;;55.45;31.08;;;;;;;-142.57;100.00;56171.84;5045081;28;20494;-79
2024/01/03 01:23:45;;;;;;;52.60;29.50;;;;;;;-142.57;100.00;56226.41;5037318;28;20061;-77
2024/01/03 01:26:11;;;;;;;59.47;32.58;;;;;;;-142.57;100.00;56194.06;5069893;28;20033;-79
2024/01/03 01:28:37;;;;;;;56.88;31.25;;;;;;;-142.57;100.00;56194.06;5047230;28;20063;-78
2024/01/03 01:31:03;;;;;;;56.55;31.77;;;;;;;-142.57;100.00;56173.84;5014794;28;20094;-78
2024/01/03 01:33:28;;;;;;;56.60;30.08;;;;;;;-142.57;100.00;56145.56;5051172;28;20036;-78
2024/01/03 01:35:54;;;;;;;58.72;31.40;;;;;;;-142.57;100.00;56200.13;5050820;28;20036;-79
2024/01/03 01:38:22;;;;;;;52.85;29.35;;;;;;;-142.57;100.00;56171.84;5027687;28;20562;-81
2024/01/03 01:40:49;;;;;;;55.92;30.27;;;;;;;-142.57;100.00;56165.78;5045872;28;20017;-78
2024/01/03 01:43:16;;;;;;;57.88;30.10;;;;;;;-142.57;100.00;56266.81;5044987;28;20481;-80
2024/01/03 01:45:41;;;;;;;59.47;30.65;;;;;;;-142.57;100.00;56234.47;5046332;28;20033;-78
2024/01/03 01:48:08;;;;;;;52.10;29.55;;;;;;;-142.57;100.00;56230.44;5042994;28;20029;-79
2024/01/03 01:50:36;;;;;;;59.08;31.52;;;;;;;-142.57;100.00;56202.16;5024607;28;20512;-79
2024/01/03 01:53:01;;;;;;;54.95;31.50;;;;;;;-142.57;100.00;56185.97;5046861;28;20048;-78
2024/01/03 01:55:27;;;;;;;54.92;30.92;;;;;;;-142.57;100.00;56188.00;5039236;28;20108;-78
2024/01/03 01:57:53;;;;;;;55.03;30.75;;;;;;;-142.57;100.00;56192.03;5027825;28;20038;-78
2024/01/03 02:00:19;;;;;;;57.50;30.42;;;;;;;-142.57;100.00;56169.81;5050841;28;20465;-79
2024/01/03 02:02:46;;;;;;;58.10;31.25;;;;;;;-142.57;100.00;56163.75;5030645;28;20029;-77
2024/01/03 02:05:13;;;;;;;53.85;29.50;;;;;;;-142.57;100.00;56143.56;5045814;28;20052;-78
2024/01/03 02:07:39;;;;;;;51.80;29.27;;;;;;;-142.57;100.00;56153.66;5047070;28;20465;-79
2024/01/03 02:10:05;;;;;;;53.40;30.52;;;;;;;-142.57;100.00;56214.28;5032998;28;20179;-78
2024/01/03 02:12:31;;;;;;;54.17;28.83;;;;;;;-142.57;100.00;56157.69;5039673;28;20130;-78
2024/01/03 02:14:56;;;;;;;54.45;29.60;;;;;;;-142.57;100.00;56224.38;5044131;28;20117;-78
2024/01/03 02:17:22;;;;;;;53.03;29.55;;;;;;;-142.57;100.00;56226.41;5020593;28;20025;-79
2024/01/03 02:19:48;;;;;;;56.00;30.30;;;;;;;-142.57;100.00;56188.00;5048948;28;20398;-79
2024/01/03 02:22:15;;;;;;;52.25;28.50;;;;;;;-142.57;100.00;56204.16;5024901;28;20048;-78
2024/01/03 02:24:42;;;;;;;52.45;29.13;;;;;;;-142.57;100.00;56232.47;5048935;28;20116;-79
2024/01/03 02:27:08;;;;;;;49.47;27.35;;;;;;;-142.57;100.00;56202.16;5055316;28;20041;-79
2024/01/03 02:29:33;;;;;;;50.10;27.75;;;;;;;-142.57;100.00;56218.31;5044372;28;20041;-79
2024/01/03 02:31:59;;;;;;;50.85;27.52;;;;;;;-142.57;100.00;56190.03;5046766;28;20478;-78
2024/01/03 02:34:26;;;;;;;46.90;27.98;;;;;;;-142.57;100.00;56200.13;5050256;28;20071;-80
2024/01/03 02:36:52;;;;;;;51.72;28.23;;;;;;;-142.57;100.00;56248.63;5022615;28;20495;-78
2024/01/03 02:39:18;;;;;;;48.88;26.88;;;;;;;-142.57;100.00;56210.22;5047201;28;20041;-79
2024/01/03 02:41:44;;;;;;;49.08;27.58;;;;;;;-142.57;100.00;56236.50;5050004;28;20033;-78
2024/01/03 02:44:10;;;;;;;49.42;27.05;;;;;;;-142.57;100.00;56218.31;5049562;28;20039;-79
2024/01/03 02:46:36;;;;;;;54.63;27.98;;;;;;;-142.57;100.00;56222.34;5043525;28;20029;-77
2024/01/03 02:49:01;;;;;;;55.50;28.75;;;;;;;-142.57;100.00;56210.22;5050638;28;20028;-78
2024/01/03 02:51:27;;;;;;;50.75;28.77;;;;;;;-142.57;100.00;56234.47;5047412;28;20069;-79
2024/01/03 02:53:52;;;;;;;52.72;28.60;;;;;;;-142.57;100.00;56246.59;5052317;28;20039;-79
2024/01/03 02:56:18;;;;;;;55.08;29.40;;;;;;;-142.57;100.00;56236.50;5033259;28;20041;-80
2024/01/03 02:58:44;;;;;;;58.67;28.48;;;;;;;-142.57;100.00;56226.41;5044877;28;20040;-79
2024/01/03 03:01:10;;;;;;;52.65;28.50;;;;;;;-142.57;100.00;56200.13;5053042;28;20032;-79
2024/01/03 03:03:36;;;;;;;51.13;28.55;;;;;;;-142.57;100.00;56192.03;5035313;28;20478;-79
2024/01/03 03:06:02;;;;;;;53.38;29.60;;;;;;;-142.57;100.00;56210.22;5041464;28;20098;-80
2024/01/03 03:08:28;;;;;;;54.03;29.38;;;;;;;-142.57;100.00;56206.19;5047554;28;20096;-79
2024/01/03 03:10:54;;;;;;;53.63;28.70;;;;;;;-142.57;100.00;56165.78;5050348;28;20528;-78
2024/01/03 03:13:19;;;;;;;55.55;28.73;;;;;;;-142.57;100.00;56206.19;5054521;28;20029;-79
2024/01/03 03:15:46;;;;;;;58.08;29.83;;;;;;;-142.57;100.00;56210.22;5053879;28;20056;-79
2024/01/03 03:18:13;;;;;;;54.53;29.10;;;;;;;-142.57;100.00;56206.19;5045803;28;21338;-79
2024/01/03 03:20:38;;;;;;;49.53;28.10;;;;;;;-142.57;100.00;56202.16;5052787;28;20737;-79
2024/01/03 03:23:04;;;;;;;52.75;28.40;;;;;;;-142.57;100.00;56210.22;5056655;28;20037;-78
2024/01/03 03:25:29;;;;;;;54.20;29.38;;;;;;;-142.57;100.00;56218.31;5045791;28;21134;-78
2024/01/03 03:27:55;;;;;;;57.38;29.95;;;;;;;-142.57;100.00;56190.03;5052313;28;20029;-78
2024/01/03 03:30:20;;;;;;;53.10;28.25;;;;;;;-142.57;100.00;56206.19;5038647;28;21129;-77
2024/01/03 03:32:47;;;;;;;51.83;28.92;;;;;;;-142.57;100.00;56230.44;4944135;28;20089;-78
2024/01/03 03:35:13;;;;;;;51.85;28.80;;;;;;;-142.57;100.00;56230.44;4961757;28;20056;-79
2024/01/03 03:37:39;;;;;;;55.75;29.73;;;;;;;-142.57;100.00;56246.59;4960665;28;20043;-79
2024/01/03 03:40:05;;;;;;;50.88;28.60;;;;;;;-142.57;100.00;56234.47;4960786;28;20374;-79
2024/01/03 03:42:31;;;;;;;50.80;27.40;;;;;;;-142.57;100.00;56258.72;5048701;28;20037;-80
2024/01/03 03:44:56;;;;;;;55.83;29.17;;;;;;;-142.57;100.00;56194.06;5050181;28;20124;-79
2024/01/03 03:47:22;;;;;;;53.70;28.50;;;;;;;-142.57;100.00;56218.31;5052486;28;20080;-78
2024/01/03 03:49:47;;;;;;;55.90;29.40;;;;;;;-142.57;100.00;56234.47;5051869;28;20037;-79
2024/01/03 03:52:13;;;;;;;53.22;27.73;;;;;;;-142.57;100.00;56234.47;5051032;28;20069;-80
2024/01/03 03:54:38;;;;;;;53.58;28.55;;;;;;;-142.57;100.00;56258.72;5046301;28;20079;-79
2024/01/03 03:57:04;;;;;;;55.28;28.88;;;;;;;-142.57;100.00;56234.47;5042139;28;20036;-79
2024/01/03 03:59:30;;;;;;;53.35;28.67;;;;;;;-142.57;100.00;56226.41;5049775;28;20158;-78
2024/01/03 04:01:55;;;;;;;52.60;28.50;;;;;;;-142.57;100.00;56220.34;5046973;28;20116;-78
2024/01/03 04:04:21;;;;;;;56.05;30.08;;;;;;;-142.57;100.00;56177.91;5048219;28;20040;-79
2024/01/03 04:06:46;;;;;;;55.25;28.90;;;;;;;-142.57;100.00;56222.34;5044100;28;20720;-79
2024/01/03 04:09:13;;;;;;;56.15;30.40;;;;;;;-142.57;100.00;56169.81;5057131;28;20060;-78
2024/01/03 04:11:42;;;;;;;56.13;28.63;;;;;;;-142.57;100.00;56214.28;5051540;28;20037;-78
2024/01/03 04:14:09;;;;;;;52.90;29.42;;;;;;;-142.57;100.00;56202.16;5045232;28;20116;-79
2024/01/03 04:16:35;;;;;;;59.05;30.30;;;;;;;-142.57;100.00;56206.19;5055211;28;20061;-79
2024/01/03 04:19:01;;;;;;;53.65;29.60;;;;;;;-142.57;100.00;56242.56;5034075;28;20068;-80
2024/01/03 04:21:30;;;;;;;56.10;29.33;;;;;;;-142.57;100.00;56222.34;5047103;28;20033;-79
2024/01/03 04:23:56;;;;;;;58.45;30.20;;;;;;;-142.57;100.00;56236.50;5051752;28;20470;-80
2024/01/03 04:26:25;;;;;;;57.30;28.67;;;;;;;-142.57;100.00;56242.56;5050107;28;20108;-79
2024/01/03 04:28:50;;;;;;;51.10;28.92;;;;;;;-142.57;100.00;56242.56;5057448;28;20527;-79
2024/01/03 04:31:16;;;;;;;51.47;28.80;;;;;;;-142.57;100.00;56224.38;5054443;28;20033;-80
2024/01/03 04:33:42;;;;;;;59.10;29.45;;;;;;;-142.57;100.00;56242.56;5058295;28;20363;-78
2024/01/03 04:36:10;;;;;;;55.85;28.67;;;;;;;-142.57;100.00;56230.44;5050128;28;20080;-77
2024/01/03 04:38:35;;;;;;;53.97;29.52;;;;;;;-142.57;100.00;56242.56;5053742;28;20394;-78
2024/01/03 04:41:01;;;;;;;51.53;28.77;;;;;;;-142.57;100.00;56250.66;5046743;28;20028;-79
2024/01/03 04:43:27;;;;;;;46.88;26.75;;;;;;;-142.57;100.00;56264.78;5051704;28;20444;-78
2024/01/03 04:45:52;;;;;;;52.65;29.45;;;;;;;-142.57;100.00;56303.19;5044257;28;20035;-78
2024/01/03 04:48:18;;;;;;;50.17;28.95;;;;;;;-142.57;100.00;56250.66;5045179;28;20035;-78
2024/01/03 04:50:44;;;;;;;56.28;27.88;;;;;;;-142.57;100.00;56258.72;5050769;28;20037;-79
2024/01/03 04:53:09;;;;;;;51.92;29.05;;;;;;;-142.57;100.00;56250.66;5052615;28;20108;-78
2024/01/03 04:55:35;;;;;;;57.10;30.10;;;;;;;-142.57;100.00;56256.72;5050913;28;20458;-78
2024/01/03 04:58:04;;;;;;;49.60;27.40;;;;;;;-142.57;100.00;56232.47;5043170;28;20037;-81
2024/01/03 05:00:30;;;;;;;51.20;28.45;;;;;;;-142.57;100.00;56222.34;5051094;28;20028;-79
2024/01/03 05:02:56;;;;;;;50.85;28.85;;;;;;;-142.57;100.00;56266.81;5050025;28;20037;-80
2024/01/03 05:05:22;;;;;;;53.30;29.65;;;;;;;-142.57;100.00;56206.19;5046795;28;20404;-80
2024/01/03 05:07:48;;;;;;;52.88;29.55;;;;;;;-142.57;100.00;56230.44;5048858;28;20057;-80
2024/01/03 05:10:14;;;;;;;61.38;33.20;;;;;;;-142.57;100.00;56190.03;5050709;28;20033;-78
2024/01/03 05:12:39;;;;;;;58.28;31.70;;;;;;;-142.57;100.00;56173.84;5053594;28;20551;-79
2024/01/03 05:15:05;;;;;;;60.15;30.15;;;;;;;-142.57;100.00;56183.97;5048802;28;20063;-78
2024/01/03 05:17:31;;;;;;;59.38;32.13;;;;;;;-142.57;100.00;56206.19;5010687;28;20669;-78
2024/01/03 05:19:57;;;;;;;52.33;30.30;;;;;;;-142.57;100.00;56190.03;5050168;28;20032;-78
2024/01/03 05:22:23;;;;;;;54.58;30.52;;;;;;;-142.57;100.00;56190.03;5050660;28;20021;-78
2024/01/03 05:24:48;;;;;;;59.00;30.48;;;;;;;-142.57;100.00;56200.13;5041570;28;20047;-78
2024/01/03 05:27:14;;;;;;;56.03;31.20;;;;;;;-142.57;100.00;56194.06;5050195;28;20029;-79
2024/01/03 05:29:39;;;;;;;56.17;29.63;;;;;;;-142.57;100.00;56185.97;5031818;28;20068;-78
2024/01/03 05:32:05;;;;;;;50.78;28.98;;;;;;;-142.57;100.00;56258.72;5048811;28;20089;-78
2024/01/03 05:34:30;;;;;;;53.42;29.65;;;;;;;-142.57;100.00;56181.94;5042680;28;20520;-79
2024/01/03 05:36:56;;;;;;;56.63;30.75;;;;;;;-142.57;100.00;56194.06;5050100;28;20478;-79
2024/01/03 05:39:22;;;;;;;57.72;29.67;;;;;;;-142.57;100.00;56188.00;5050346;28;20175;-78
2024/01/03 05:41:47;;;;;;;56.67;29.58;;;;;;;-142.57;100.00;56202.16;5015676;28;20470;-78
2024/01/03 05:44:13;;;;;;;57.28;29.92;;;;;;;-142.57;100.00;56188.00;5042850;28;20447;-78
2024/01/03 05:46:42;;;;;;;57.08;31.55;;;;;;;-142.57;100.00;56198.09;5051718;28;20028;-80
2024/01/03 05:49:08;;;;;;;58.25;33.10;;;;;;;-142.57;100.00;56161.72;5049023;28;20028;-78
2024/01/03 05:51:33;;;;;;;55.25;30.42;;;;;;;-142.57;100.00;56185.97;5043736;28;22603;-82
2024/01/03 05:53:59;;;;;;;59.80;30.20;;;;;;;-142.57;100.00;56214.28;5047224;28;20080;-79
2024/01/03 05:56:24;;;;;;;59.42;31.67;;;;;;;-142.57;100.00;56200.13;5053887;28;20021;-79
2024/01/03 05:58:51;;;;;;;54.30;30.20;;;;;;;-142.57;100.00;56218.31;5046690;28;20021;-79
2024/01/03 06:01:16;;;;;;;51.45;29.15;;;;;;;-142.57;100.00;56198.09;5044368;28;22036;-78
2024/01/03 06:03:42;;;;;;;59.17;29.70;;;;;;;-142.57;100.00;56181.94;5033417;28;20581;-80
2024/01/03 06:06:08;;;;;;;53.58;29.65;;;;;;;-142.57;100.00;56198.09;5046421;28;20038;-79
2024/01/03 06:08:33;;;;;;;63.20;31.08;;;;;;;-142.57;100.00;56216.28;5043727;28;20029;-78
2024/01/03 06:10:59;;;;;;;62.97;32.42;;;;;;;-142.57;100.00;56216.28;5046864;28;20036;-81
2024/01/03 06:13:24;;;;;;;70.63;36.15;;;;;;;-142.57;100.00;56230.44;5050029;28;20037;-81
2024/01/03 06:15:50;;;;;;;57.03;30.52;;;;;;;-142.57;100.00;56222.34;5048937;28;20044;-82
2024/01/03 06:18:15;;;;;;;66.60;35.35;;;;;;;-142.57;100.00;56190.03;5041346;28;20045;-81
2024/01/03 06:20:41;;;;;;;60.30;31.33;;;;;;;-142.57;100.00;56218.31;5049836;28;20036;-81
2024/01/03 06:23:07;;;;;;;65.10;34.42;;;;;;;-142.57;100.00;56222.34;5050741;28;20069;-80
2024/01/03 06:25:32;;;;;;;57.97;31.33;;;;;;;-142.57;100.00;56210.22;5047900;28;20033;-79
2024/01/03 06:27:58;;;;;;;61.63;31.02;;;;;;;-142.57;100.00;56210.22;5043473;28;20029;-78
2024/01/03 06:30:24;;;;;;;54.25;29.52;;;;;;;-142.57;100.00;56226.41;5051938;28;20067;-82
2024/01/03 06:32:50;;;;;;;58.42;33.10;;;;;;;-142.57;100.00;56244.59;5051906;28;20049;-80
2024/01/03 06:35:16;;;;;;;64.03;34.22;;;;;;;-142.57;100.00;56234.47;5048333;28;20393;-80
2024/01/03 06:37:41;;;;;;;53.85;29.65;;;;;;;-142.57;100.00;56268.84;5053499;28;20032;-81
2024/01/03 06:40:08;;;;;;;59.25;32.42;;;;;;;-142.57;100.00;56276.91;5050946;28;20029;-79
2024/01/03 06:42:33;;;;;;;54.90;31.08;;;;;;;-142.57;100.00;56256.72;5051559;28;20025;-82
2024/01/03 06:44:59;;;;;;;51.88;28.75;;;;;;;-142.57;100.00;56242.56;5032602;28;20063;-80
2024/01/03 06:47:24;;;;;;;61.50;32.17;;;;;;;-142.57;100.00;56242.56;5051542;28;20056;-85
2024/01/03 06:49:50;;;;;;;61.33;31.60;;;;;;;-142.57;100.00;56291.06;5053299;28;20041;-80
2024/01/03 06:52:16;;;;;;;57.28;30.50;;;;;;;-142.57;100.00;56278.94;5052719;28;20033;-78
2024/01/03 06:54:41;;;;;;;57.75;31.15;;;;;;;-142.57;100.00;56282.97;5046719;28;20075;-78
2024/01/03 06:57:07;;;;;;;57.13;30.08;;;;;;;-142.57;100.00;56282.97;5054108;28;20389;-82
2024/01/03 06:59:36;;;;;;;57.83;31.60;;;;;;;-142.57;100.00;56266.81;5053110;28;20045;-82
2024/01/03 07:02:01;;;;;;;57.47;30.95;;;;;;;-142.57;100.00;56278.94;5052271;28;20037;-76
2024/01/03 07:04:28;;;;;;;67.95;33.92;;;;;;;-142.57;100.00;56236.50;5047832;28;20033;-85
2024/01/03 07:06:53;;;;;;;75.85;36.10;;;;;;;-142.57;100.00;56248.63;5054754;28;20154;-81
2024/01/03 07:09:19;;;;;;;77.28;38.88;;;;;;;-142.57;100.00;56214.28;5049916;28;20473;-84
2024/01/03 07:11:44;;;;;;;73.65;36.05;;;;;;;-142.57;100.00;56246.59;5044200;28;20470;-78
2024/01/03 07:14:12;;;;;;;73.85;36.08;;;;;;;-142.57;100.00;56268.84;5036143;28;20029;-80
2024/01/03 07:16:38;;;;;;;77.68;35.85;;;;;;;-142.57;100.00;56266.81;5022599;28;20116;-79
2024/01/03 07:19:04;;;;;;;85.25;42.85;;;;;;;-142.57;100.00;56238.53;5012796;28;20033;-81
2024/01/03 07:21:30;;;;;;;73.75;39.30;;;;;;;-142.57;100.00;56250.66;5048811;28;20468;-80
2024/01/03 07:23:56;;;;;;;66.97;34.80;;;;;;;-142.57;100.00;56210.22;5052985;28;20120;-81
2024/01/03 07:26:21;;;;;;;64.13;34.10;;;;;;;-142.57;100.00;56234.47;5046482;28;20025;-80
2024/01/03 07:28:47;;;;;;;65.65;32.60;;;;;;;-142.57;100.00;56270.84;5014123;28;20036;-79
2024/01/03 07:31:12;;;;;;;62.40;32.63;;;;;;;-142.57;100.00;56299.16;5046658;28;20115;-79
2024/01/03 07:33:40;;;;;;;67.88;33.00;;;;;;;-142.57;100.00;56291.06;5049302;28;20029;-79
2024/01/03 07:36:06;;;;;;;59.65;32.95;;;;;;;-142.57;100.00;56309.25;5067539;28;20543;-79
2024/01/03 07:38:31;;;;;;;58.95;31.80;;;;;;;-142.57;100.00;56321.38;5040765;28;21679;-79
2024/01/03 07:40:58;;;;;;;55.38;31.80;;;;;;;-142.57;100.00;56422.41;5045340;28;20025;-81
2024/01/03 07:43:23;;;;;;;60.03;29.55;;;;;;;-142.57;100.00;56444.66;5013101;28;20021;-80
2024/01/03 07:45:49;;;;;;;61.38;30.70;;;;;;;-142.57;100.00;56509.31;5034587;28;20373;-80
2024/01/03 07:48:14;;;;;;;51.25;27.25;;;;;;;-142.57;100.00;56614.41;5046522;28;20040;-82
2024/01/03 07:50:40;;;;;;;49.00;27.63;;;;;;;-142.57;100.00;56723.53;5022865;28;20034;-84
2024/01/03 07:53:07;;;;;;;54.22;27.73;;;;;;;-142.57;100.00;56673.03;5051050;28;20474;-83
2024/01/03 07:55:32;;;;;;;51.17;26.77;;;;;;;-142.57;100.00;56729.59;5047681;28;20040;-81
2024/01/03 07:57:58;;;;;;;45.85;25.30;;;;;;;-142.57;100.00;56707.38;5046214;28;20040;-83
2024/01/03 08:00:23;;;;;;;49.38;27.42;;;;;;;-142.57;100.00;56675.03;5050867;28;20032;-84
2024/01/03 08:02:49;;;;;;;46.50;26.70;;;;;;;-142.57;100.00;56626.53;5043676;28;20031;-81
2024/01/03 08:05:15;;;;;;;48.67;26.63;;;;;;;-142.57;100.00;56555.81;5036791;28;20477;-79
2024/01/03 08:07:40;;;;;;;53.25;28.13;;;;;;;-142.57;100.00;56456.78;5048583;28;20063;-84
2024/01/03 08:10:06;;;;;;;49.38;26.73;;;;;;;-142.57;100.00;56420.41;5055077;28;20041;-81
2024/01/03 08:12:33;;;;;;;47.03;26.75;;;;;;;-142.57;100.00;56448.69;5044645;28;20041;-82
2024/01/03 08:14:58;;;;;;;51.28;26.48;;;;;;;-142.57;100.00;56396.16;5050087;28;20092;-81
2024/01/03 08:17:26;;;;;;;46.83;26.63;;;;;;;-142.57;100.00;56365.84;5049018;28;20057;-81
2024/01/03 08:19:52;;;;;;;44.55;24.63;;;;;;;-142.57;100.00;56394.13;5001562;28;20068;-83
2024/01/03 08:22:17;;;;;;;48.20;24.80;;;;;;;-142.57;100.00;56408.28;5046153;28;20124;-83
2024/01/03 08:24:43;;;;;;;44.90;23.52;;;;;;;-142.57;100.00;56426.47;5044645;28;20045;-82
2024/01/03 08:27:10;;;;;;;38.90;21.48;;;;;;;-142.57;100.00;56464.84;5051601;28;20048;-79
2024/01/03 08:29:37;;;;;;;36.85;21.05;;;;;;;-142.57;100.00;56464.84;5048221;28;20465;-79
2024/01/03 08:32:03;;;;;;;44.97;21.98;;;;;;;-142.57;100.00;56545.69;5051638;28;20029;-83
2024/01/03 08:34:29;;;;;;;46.55;23.80;;;;;;;-142.57;100.00;56444.66;5045155;28;20033;-81
2024/01/03 08:36:54;;;;;;;44.97;22.63;;;;;;;-142.57;100.00;56505.28;5035700;28;20116;-80
2024/01/03 08:39:21;;;;;;;42.42;20.58;;;;;;;-142.57;100.00;56462.84;5051187;28;20071;-84
2024/01/03 08:41:47;;;;;;;43.25;20.42;;;;;;;-142.57;100.00;56404.22;5047799;28;20032;-76
2024/01/03 08:44:13;;;;;;;40.05;18.98;;;;;;;-142.57;100.00;56468.91;5038159;28;20037;-81
2024/01/03 08:46:43;;;;;;;40.55;20.48;;;;;;;-142.57;100.00;56456.78;5042532;28;20106;-81
2024/01/03 08:49:08;;;;;;;41.25;21.75;;;;;;;-142.57;100.00;56412.31;4999531;28;20549;-78
2024/01/03 08:51:35;;;;;;;47.22;21.27;;;;;;;-142.57;100.00;56412.31;5036316;28;20033;-81
2024/01/03 08:54:01;;;;;;;45.38;19.90;;;;;;;-142.57;100.00;56404.22;5041974;28;20024;-83
2024/01/03 08:56:26;;;;;;;34.40;18.67;;;;;;;-142.57;100.00;56422.41;5037853;28;20350;-81
2024/01/03 08:58:52;;;;;;;34.33;15.70;;;;;;;-142.57;100.00;56460.81;5047857;28;20032;-79
2024/01/03 09:01:19;;;;;;;32.60;13.95;;;;;;;-142.57;100.00;56452.75;5051117;28;20052;-78
2024/01/03 09:03:46;;;;;;;27.85;13.07;;;;;;;-142.57;100.00;56470.94;5049779;28;20486;-80
2024/01/03 09:06:18;;;;;;;27.40;13.90;;;;;;;-142.57;100.00;56497.19;5033267;28;20039;-78
2024/01/03 09:08:46;;;;;;;27.98;14.70;;;;;;;-142.57;100.00;56576.00;5050491;28;20067;-78
2024/01/03 09:11:13;;;;;;;29.02;13.63;;;;;;;-142.57;100.00;56584.09;5045781;28;20029;-77
2024/01/03 09:13:39;;;;;;;27.30;14.07;;;;;;;-142.57;100.00;56569.94;5049469;28;20063;-79
2024/01/03 09:16:06;;;;;;;20.98;12.05;;;;;;;-142.57;100.00;56596.22;5052682;28;20037;-79
2024/01/03 09:18:33;;;;;;;22.60;12.70;;;;;;;-142.57;100.00;56584.09;5025193;28;20801;-79
2024/01/03 09:21:02;;;;;;;22.20;12.75;;;;;;;-142.57;100.00;56602.28;4946917;28;21561;-79
2024/01/03 09:23:27;;;;;;;25.10;11.52;;;;;;;-142.57;100.00;56622.50;4941073;28;21333;-79
2024/01/03 09:25:55;;;;;;;21.85;11.38;;;;;;;-142.57;100.00;56584.09;4952614;28;20037;-79
2024/01/03 09:28:24;;;;;;;21.42;11.25;;;;;;;-142.57;100.00;56654.84;5026896;28;20420;-78
2024/01/03 09:30:49;;;;;;;19.50;10.77;;;;;;;-142.57;100.00;56656.84;5056211;28;20340;-78
2024/01/03 09:33:15;;;;;;;26.25;10.70;;;;;;;-142.57;100.00;56709.41;4970766;28;20052;-78
2024/01/03 09:35:40;;;;;;;19.98;10.10;;;;;;;-142.57;100.00;56709.41;4965776;28;20112;-80
2024/01/03 09:38:06;;;;;;;14.93;9.45;;;;;;;-142.57;100.00;56695.25;5032714;28;20493;-80
2024/01/03 09:40:33;;;;;;;14.95;7.85;;;;;;;-142.57;100.00;56715.47;5041586;28;20128;-78
2024/01/03 09:43:03;;;;;;;25.67;8.80;;;;;;;-142.57;100.00;56652.81;5016842;28;20107;-79
2024/01/03 09:45:30;;;;;;;14.57;7.68;;;;;;;-142.57;100.00;56666.97;5008999;28;20052;-80
2024/01/03 09:47:56;;;;;;;20.42;8.20;;;;;;;-142.57;100.00;56642.72;4988807;28;20040;-77
2024/01/03 09:50:22;;;;;;;21.80;8.43;;;;;;;-142.57;100.00;56658.88;4959374;28;20064;-79
2024/01/03 09:52:48;;;;;;;16.10;8.27;;;;;;;-142.57;100.00;56695.25;5045689;28;20033;-80
2024/01/03 09:55:14;;;;;;;21.27;11.30;;;;;;;-142.57;100.00;56711.41;4960274;28;20039;-79
2024/01/03 09:57:41;;;;;;;28.92;14.07;;;;;;;-142.57;100.00;56691.22;4981677;28;20033;-81
2024/01/03 10:00:08;;;;;;;35.92;15.77;;;;;;;-142.57;100.00;56717.47;5043034;28;20029;-84
2024/01/03 10:03:10;;;;;;;34.67;17.73;;;;;;;-142.57;100.00;56715.47;5040696;28;20071;-82
2024/01/03 10:05:36;;;;;;;29.92;17.38;;;;;;;-142.57;100.00;56695.25;5032597;28;20130;-79
2024/01/03 10:08:13;;;;;;;41.17;19.08;;;;;;;-142.57;100.00;56703.34;5009896;28;20363;-84
2024/01/03 10:10:39;;;;;;;36.75;18.65;;;;;;;-142.57;100.00;56695.25;5043663;28;20048;-79
2024/01/03 10:13:15;;;;;;;37.83;17.90;;;;;;;-142.57;100.00;56735.69;5045416;28;20037;-84
2024/01/03 10:15:42;;;;;;;34.65;17.38;;;;;;;-142.57;100.00;56699.28;5048264;28;20056;-84
2024/01/03 10:18:09;;;;;;;33.63;16.45;;;;;;;-142.57;100.00;56707.38;5028517;28;20028;-85
2024/01/03 10:20:35;;;;;;;31.35;15.00;;;;;;;-142.57;100.00;56739.72;5011952;28;20386;-81
2024/01/03 10:23:09;;;;;;;40.75;15.48;;;;;;;-142.57;100.00;56709.41;5032900;28;20051;-78
2024/01/03 10:25:41;;;;;;;34.17;17.05;;;;;;;-142.57;100.00;56671.00;5028141;28;21492;-77
2024/01/03 10:28:09;;;;;;;29.80;15.98;;;;;;;-142.57;100.00;56731.63;4957991;28;20049;-78
2024/01/03 10:30:35;;;;;;;33.85;17.40;;;;;;;-142.57;100.00;56721.53;4957238;28;20029;-80
2024/01/03 10:33:05;;;;;;;33.22;17.27;;;;;;;-142.57;100.00;56654.84;4977535;28;20158;-75
2024/01/03 10:35:43;;;;;;;35.30;18.10;;;;;;;-142.57;100.00;56626.53;5013386;28;20447;-81
2024/01/03 10:38:09;;;;;;;37.65;18.98;;;;;;;-142.57;100.00;56650.78;4999351;28;20048;-85
2024/01/03 10:40:36;;;;;;;37.78;19.38;;;;;;;-142.57;100.00;56642.72;5002081;28;20384;-78
2024/01/03 10:43:04;;;;;;;34.38;17.95;;;;;;;-142.57;100.00;56687.16;5007978;28;20060;-88
2024/01/03 10:45:30;;;;;;;43.05;18.55;;;;;;;-142.57;100.00;56687.16;4965531;28;20041;-83
2024/01/03 10:47:57;;;;;;;41.10;19.25;;;;;;;-142.57;100.00;56634.63;4971716;28;20091;-80
2024/01/03 10:50:23;;;;;;;32.70;18.20;;;;;;;-142.57;100.00;56594.19;4957480;28;20037;-78